CheckWX is a tool to help pilots better visualize weather data.  It is not intended as a substitute for an official pre-flight weather briefing.

05:08:30 UTC

FBMN METAR
Maun Airport
Maun, Botswana
Current

1 hour ago

FBMN 240400Z 08003KT CAVOK 07/01 Q1019
Observed
Jul-24 @ 04:00 UTC
Wind
  • 080° at 3 KTS
Visibility
10,000+ meters
Flight Rules
VFR
Cloud Levels
  • Clear skies
Temperature
C / 45°F
Dewpoint
C / 34°F
Humidity
66%
Altimeter
30.09" Hg
Pressure
1018.92 hPa
Previous

2 hours ago

FBMN 240300Z VRB01KT CAVOK 07/01 Q1019
Observed
Jul-24 @ 03:00 UTC
Wind
  • Variable at 1 KTS
Visibility
10,000+ meters
Flight Rules
VFR
Cloud Levels
  • Clear skies
Temperature
C / 45°F
Dewpoint
C / 34°F
Humidity
66%
Altimeter
30.09" Hg
Pressure
1018.92 hPa
Previous

3 hours ago

FBMN 240200Z VRB02KT CAVOK 07/01 Q1019
Observed
Jul-24 @ 02:00 UTC
Wind
  • Variable at 2 KTS
Visibility
10,000+ meters
Flight Rules
VFR
Cloud Levels
  • Clear skies
Temperature
C / 45°F
Dewpoint
C / 34°F
Humidity
66%
Altimeter
30.09" Hg
Pressure
1018.92 hPa